HTH Airport (Hawthorne Industrial) Information

FAA: HTH - ICAO: KHTH

HTH Airport Location

State Nevada
County Mineral
City Hawthorne
HTH Airport is 1 mile north of Hawthorne, NV.
Latitude 38-32-42.2770N
Longitude 118-37-56.6510W
Elevation 4,230ft

KHTH Airport METARs

METAR KHTH 060815Z AUTO 26003KT 10SM CLR 04/M08 A3028 RMK A01
Altimeter 30.28"
Temperature 4.0°C (39.2°F)
Wind 260° at 3KT
Clouds Skies are clear.
Visibility 10.0mi
Time observed: 2021-12-06T08:15:00Z

HTH Airport Details

Status Operational
Activation October 1937
Ownership Public
Usage Public
Chart SAN FRANCISCO
ATC on-site No
Beacon schedule sunset-sunrise
Beacon color clear green

HTH Airport Contacts

Owner MINERAL COUNTY
Owner address PO BOX 1035, HAWTHORNE, NV 89415
Owner phone 775-945-3897
Manager LANCE GALE
Manager address 1472 MCGILL HIGHWAY, ELY, NV 89315-0437
Manager phone (775) 289-2165

HTH Airport (Hawthorne Industrial) Radio Frequencies

HTH (Airport) Radio Frequencies

UNICOM 122.8
Common traffic advisory frequency (CTAF) 122.8